createdAt,value
2018-11-21T00:00:25.363Z,15.69
2018-11-21T00:01:27.108Z,15.69
2018-11-21T00:02:28.845Z,15.69
2018-11-21T00:03:30.654Z,15.68
2018-11-21T00:04:35.624Z,15.68
2018-11-21T00:05:37.420Z,15.68
2018-11-21T00:06:40.009Z,15.67
2018-11-21T00:07:41.754Z,15.68
2018-11-21T00:08:43.566Z,15.69
2018-11-21T00:09:45.275Z,15.68
2018-11-21T00:10:47.027Z,15.68
2018-11-21T00:11:48.775Z,15.67
2018-11-21T00:12:50.515Z,15.67
2018-11-21T00:13:52.260Z,15.67
2018-11-21T00:14:55.123Z,15.67
2018-11-21T00:15:56.858Z,15.67
2018-11-21T00:16:58.615Z,15.67
2018-11-21T00:18:00.374Z,15.66
2018-11-21T00:19:02.117Z,15.66
2018-11-21T00:20:03.891Z,15.66
2018-11-21T00:21:05.643Z,15.66
2018-11-21T00:22:07.377Z,15.66
2018-11-21T00:23:12.858Z,15.66
2018-11-21T00:24:14.605Z,15.65
2018-11-21T00:25:18.113Z,15.66
2018-11-21T00:26:19.864Z,15.66
2018-11-21T00:27:21.613Z,15.66
2018-11-21T00:28:23.659Z,15.66
2018-11-21T00:29:25.416Z,15.66
2018-11-21T00:30:27.201Z,15.66
2018-11-21T00:31:28.967Z,15.65
2018-11-21T00:32:32.225Z,15.65
2018-11-21T00:33:33.991Z,15.65
2018-11-21T00:34:35.809Z,15.65
2018-11-21T00:35:37.588Z,15.64
2018-11-21T00:36:39.339Z,15.64
2018-11-21T00:37:41.086Z,15.65
2018-11-21T00:38:42.842Z,15.64
2018-11-21T00:39:44.580Z,15.64
2018-11-21T00:40:48.175Z,15.63
2018-11-21T00:41:49.906Z,15.63
2018-11-21T00:42:51.644Z,15.64
2018-11-21T00:43:53.431Z,15.64
2018-11-21T00:44:55.187Z,15.63
2018-11-21T00:46:02.648Z,15.63
2018-11-21T00:47:04.391Z,15.64
2018-11-21T00:48:07.271Z,15.63
2018-11-21T00:49:09.017Z,15.65
2018-11-21T00:50:11.268Z,15.63
2018-11-21T00:51:12.586Z,15.64
2018-11-21T00:52:14.359Z,15.63
2018-11-21T00:53:16.244Z,15.63
2018-11-21T00:54:18.000Z,15.63
2018-11-21T00:55:20.632Z,15.64
2018-11-21T00:56:22.410Z,15.64
2018-11-21T00:57:24.321Z,15.64
2018-11-21T00:58:26.062Z,15.63
2018-11-21T00:59:27.800Z,15.64
2018-11-21T01:00:29.555Z,15.64
2018-11-21T01:01:41.885Z,15.63
2018-11-21T01:02:43.640Z,15.64
2018-11-21T01:03:47.192Z,15.63
2018-11-21T01:04:48.932Z,15.63
2018-11-21T01:05:50.886Z,15.62
2018-11-21T01:06:52.661Z,15.62
2018-11-21T01:07:56.347Z,15.62
2018-11-21T01:08:58.084Z,15.62
2018-11-21T01:09:59.827Z,15.62
2018-11-21T01:11:01.915Z,15.62
2018-11-21T01:12:03.775Z,15.62
2018-11-21T01:13:05.573Z,15.63
2018-11-21T01:14:07.329Z,15.62
2018-11-21T01:15:09.112Z,15.61
2018-11-21T01:16:11.286Z,15.62
2018-11-21T01:17:13.073Z,15.60
2018-11-21T01:18:14.831Z,15.62
2018-11-21T01:19:16.782Z,15.62
2018-11-21T01:20:18.526Z,15.61
2018-11-21T01:21:20.273Z,15.61
2018-11-21T01:22:22.054Z,15.62
2018-11-21T01:23:23.791Z,15.61
2018-11-21T01:24:31.374Z,15.60
2018-11-21T01:25:33.138Z,15.60
2018-11-21T01:26:34.870Z,15.60
2018-11-21T01:27:36.642Z,15.61
2018-11-21T01:28:38.393Z,15.60
2018-11-21T01:29:40.310Z,15.60
2018-11-21T01:30:42.100Z,15.61
2018-11-21T01:31:44.242Z,15.59
2018-11-21T01:32:46.019Z,15.59
2018-11-21T01:33:47.780Z,15.60
2018-11-21T01:34:49.850Z,15.60
2018-11-21T01:35:51.586Z,15.60
2018-11-21T01:36:54.400Z,15.60
2018-11-21T01:37:56.158Z,15.59
2018-11-21T01:38:57.924Z,15.59
2018-11-21T01:39:59.674Z,15.59
2018-11-21T01:41:01.420Z,15.59
2018-11-21T01:42:03.211Z,15.59
2018-11-21T01:43:05.433Z,15.59
2018-11-21T01:44:07.688Z,15.59
2018-11-21T01:45:09.435Z,15.59
2018-11-21T01:46:13.046Z,15.60
2018-11-21T01:47:14.778Z,15.59
2018-11-21T01:48:16.544Z,15.58
2018-11-21T01:49:18.294Z,15.59
2018-11-21T01:50:20.530Z,15.59
2018-11-21T01:51:22.267Z,15.58
2018-11-21T01:52:24.016Z,15.58
2018-11-21T01:53:25.774Z,15.59
2018-11-21T01:54:29.146Z,15.59
2018-11-21T01:55:31.236Z,15.59
2018-11-21T01:56:33.000Z,15.59
2018-11-21T01:57:49.103Z,15.58
2018-11-21T01:58:50.872Z,15.58
2018-11-21T01:59:52.632Z,15.57
2018-11-21T02:00:56.633Z,15.57
2018-11-21T02:01:56.470Z,15.57
2018-11-21T02:02:58.243Z,15.57
2018-11-21T02:04:00.001Z,15.58
2018-11-21T02:05:01.732Z,15.58
2018-11-21T02:06:03.467Z,15.57
2018-11-21T02:07:06.762Z,15.57
2018-11-21T02:08:08.498Z,15.58
2018-11-21T02:09:11.460Z,15.57
2018-11-21T02:10:13.218Z,15.57
2018-11-21T02:11:14.958Z,15.56
2018-11-21T02:12:31.327Z,15.57
2018-11-21T02:13:33.095Z,15.57
2018-11-21T02:14:34.874Z,15.56
2018-11-21T02:15:36.626Z,15.57
2018-11-21T02:16:38.422Z,15.57
2018-11-21T02:17:40.164Z,15.57
2018-11-21T02:18:41.919Z,15.57
2018-11-21T02:19:43.668Z,15.57
2018-11-21T02:20:45.417Z,15.57
2018-11-21T02:21:47.165Z,15.56
2018-11-21T02:22:48.911Z,15.56
2018-11-21T02:23:51.585Z,15.57
2018-11-21T02:24:53.331Z,15.56
2018-11-21T02:25:55.108Z,15.57
2018-11-21T02:26:56.864Z,15.76
2018-11-21T02:27:58.601Z,15.78
2018-11-21T02:29:00.387Z,15.80
2018-11-21T02:30:02.142Z,15.77
2018-11-21T02:31:05.448Z,15.76
2018-11-21T02:32:08.019Z,15.72
2018-11-21T02:33:09.774Z,15.70
2018-11-21T02:34:13.642Z,15.67
2018-11-21T02:35:15.920Z,15.65
2018-11-21T02:36:19.927Z,15.64
2018-11-21T02:37:21.675Z,15.64
2018-11-21T02:38:23.434Z,15.64
2018-11-21T02:39:25.441Z,15.63
2018-11-21T02:40:27.194Z,15.62
2018-11-21T02:41:29.183Z,15.61
2018-11-21T02:42:30.971Z,15.59
2018-11-21T02:43:32.760Z,15.59
2018-11-21T02:44:34.562Z,15.59
2018-11-21T02:45:37.454Z,15.59
2018-11-21T02:46:39.275Z,15.58
2018-11-21T02:47:41.041Z,15.59
2018-11-21T02:48:42.787Z,15.58
2018-11-21T02:49:44.534Z,15.57
2018-11-21T02:50:46.289Z,15.57
2018-11-21T02:51:48.043Z,15.57
2018-11-21T02:52:49.926Z,15.55
2018-11-21T02:53:51.811Z,15.56
2018-11-21T02:54:53.547Z,15.57
2018-11-21T02:55:55.328Z,15.57
2018-11-21T02:56:57.063Z,15.56
2018-11-21T02:57:58.798Z,15.56
2018-11-21T02:59:00.547Z,15.56
2018-11-21T03:00:02.301Z,15.55
2018-11-21T03:01:07.419Z,15.56
2018-11-21T03:02:09.172Z,15.56
2018-11-21T03:03:10.915Z,15.56
2018-11-21T03:04:12.689Z,15.56
2018-11-21T03:05:14.441Z,15.55
2018-11-21T03:06:16.211Z,15.56
2018-11-21T03:07:18.816Z,15.55
2018-11-21T03:08:20.553Z,15.55
2018-11-21T03:09:23.524Z,15.60
2018-11-21T03:10:25.870Z,15.63
2018-11-21T03:11:27.629Z,15.63
2018-11-21T03:12:40.793Z,15.60
2018-11-21T03:13:42.540Z,15.58
2018-11-21T03:14:44.315Z,15.56
2018-11-21T03:15:46.068Z,15.56
2018-11-21T03:16:47.933Z,15.56
2018-11-21T03:17:49.693Z,15.55
2018-11-21T03:18:51.435Z,15.55
2018-11-21T03:19:53.217Z,15.55
2018-11-21T03:20:55.645Z,15.55
2018-11-21T03:21:57.906Z,15.52
2018-11-21T03:22:59.646Z,15.53
2018-11-21T03:24:01.404Z,15.54
2018-11-21T03:25:03.177Z,15.53
2018-11-21T03:26:04.934Z,15.53
2018-11-21T03:27:28.917Z,15.53
2018-11-21T03:28:30.666Z,15.53
2018-11-21T03:29:32.408Z,15.53
2018-11-21T03:30:34.572Z,15.52
2018-11-21T03:31:36.394Z,15.51
2018-11-21T03:32:38.624Z,15.53
2018-11-21T03:33:43.614Z,15.52
2018-11-21T03:34:45.344Z,15.52
2018-11-21T03:35:47.129Z,15.52
2018-11-21T03:36:50.420Z,15.52
2018-11-21T03:37:52.168Z,15.50
2018-11-21T03:38:53.900Z,15.51
2018-11-21T03:39:55.634Z,15.51
2018-11-21T03:40:57.413Z,15.51
2018-11-21T03:41:59.156Z,15.51
2018-11-21T03:43:00.921Z,15.51
2018-11-21T03:44:03.280Z,15.50
2018-11-21T03:45:05.036Z,15.51
2018-11-21T03:46:06.815Z,15.50
2018-11-21T03:47:16.016Z,15.50
2018-11-21T03:48:17.770Z,15.51
2018-11-21T03:49:19.530Z,15.50
2018-11-21T03:50:21.268Z,15.51
2018-11-21T03:51:23.053Z,15.50
2018-11-21T03:52:24.784Z,15.50
2018-11-21T03:53:28.087Z,15.49
2018-11-21T03:54:29.827Z,15.49
2018-11-21T03:55:34.596Z,15.49
2018-11-21T03:56:36.872Z,15.49
2018-11-21T03:57:38.679Z,15.49
2018-11-21T03:58:40.432Z,15.49
2018-11-21T03:59:45.641Z,15.49
2018-11-21T04:00:47.388Z,15.49
2018-11-21T04:01:49.152Z,15.50
2018-11-21T04:02:50.924Z,15.48
2018-11-21T04:03:52.680Z,15.48
2018-11-21T04:04:54.436Z,15.48
2018-11-21T04:05:56.175Z,15.48
2018-11-21T04:06:57.926Z,15.47
2018-11-21T04:08:02.744Z,15.48
2018-11-21T04:09:05.958Z,15.47
2018-11-21T04:10:07.693Z,15.49
2018-11-21T04:11:09.430Z,15.48
2018-11-21T04:12:11.223Z,15.47
2018-11-21T04:13:13.065Z,15.47
2018-11-21T04:14:14.835Z,15.47
2018-11-21T04:15:16.566Z,15.47
2018-11-21T04:16:20.045Z,15.47
2018-11-21T04:17:21.827Z,15.46
2018-11-21T04:18:23.598Z,15.47
2018-11-21T04:19:26.376Z,15.46
2018-11-21T04:20:28.118Z,15.45
2018-11-21T04:21:29.866Z,15.46
2018-11-21T04:22:31.641Z,15.46
2018-11-21T04:23:33.386Z,15.46
2018-11-21T04:24:35.124Z,15.45
2018-11-21T04:25:36.862Z,15.45
2018-11-21T04:26:38.705Z,15.46
2018-11-21T04:27:40.651Z,15.46
2018-11-21T04:28:42.398Z,15.46
2018-11-21T04:29:45.013Z,15.45
2018-11-21T04:30:46.768Z,15.45
2018-11-21T04:31:48.570Z,15.45
2018-11-21T04:32:50.344Z,15.45
2018-11-21T04:33:52.219Z,15.45
2018-11-21T04:34:54.509Z,15.44
2018-11-21T04:35:56.248Z,15.45
2018-11-21T04:36:57.999Z,15.45
2018-11-21T04:37:59.799Z,15.44
2018-11-21T04:39:01.534Z,15.45
2018-11-21T04:40:03.446Z,15.44
2018-11-21T04:41:05.237Z,15.45
2018-11-21T04:42:06.976Z,15.43
2018-11-21T04:43:10.834Z,15.44
2018-11-21T04:44:13.240Z,15.44
2018-11-21T04:45:14.987Z,15.44
2018-11-21T04:46:16.739Z,15.43
2018-11-21T04:47:20.062Z,15.43
2018-11-21T04:48:22.654Z,15.43
2018-11-21T04:49:24.393Z,15.41
2018-11-21T04:50:26.134Z,15.42
2018-11-21T04:51:29.786Z,15.41
2018-11-21T04:52:31.514Z,15.42
2018-11-21T04:53:33.297Z,15.43
2018-11-21T04:54:35.067Z,15.42
2018-11-21T04:55:38.046Z,15.41
2018-11-21T04:56:39.795Z,15.42
2018-11-21T04:57:41.539Z,15.41
2018-11-21T04:58:43.324Z,15.41
2018-11-21T04:59:48.304Z,15.41
2018-11-21T05:00:50.114Z,15.41
2018-11-21T05:01:51.909Z,15.41
2018-11-21T05:02:54.187Z,15.41
2018-11-21T05:03:55.953Z,15.40
2018-11-21T05:04:59.525Z,15.41
2018-11-21T05:06:01.291Z,15.41
2018-11-21T05:07:03.030Z,15.40
2018-11-21T05:08:04.785Z,15.40
2018-11-21T05:09:06.576Z,15.40
2018-11-21T05:10:08.313Z,15.40
2018-11-21T05:11:10.085Z,15.39
2018-11-21T05:12:11.819Z,15.39
2018-11-21T05:13:13.561Z,15.41
2018-11-21T05:14:17.180Z,15.41
2018-11-21T05:15:18.931Z,15.40
2018-11-21T05:16:20.659Z,15.39
2018-11-21T05:17:22.393Z,15.39
2018-11-21T05:18:25.403Z,15.39
2018-11-21T05:19:27.177Z,15.38
2018-11-21T05:20:28.935Z,15.39
2018-11-21T05:21:31.044Z,15.37
2018-11-21T05:22:33.896Z,15.37
2018-11-21T05:23:37.528Z,15.37
2018-11-21T05:24:39.295Z,15.37
2018-11-21T05:25:41.369Z,15.37
2018-11-21T05:26:43.111Z,15.37
2018-11-21T05:27:45.218Z,15.37
2018-11-21T05:28:46.944Z,15.37
2018-11-21T05:29:48.732Z,15.37
2018-11-21T05:30:52.224Z,15.36
2018-11-21T05:31:53.993Z,15.37
2018-11-21T05:32:55.733Z,15.37
2018-11-21T05:33:57.463Z,15.37
2018-11-21T05:34:59.241Z,15.37
2018-11-21T05:36:01.001Z,15.36
2018-11-21T05:37:04.514Z,15.36
2018-11-21T05:38:06.253Z,15.36
2018-11-21T05:39:07.987Z,15.35
2018-11-21T05:40:10.523Z,15.36
2018-11-21T05:41:12.264Z,15.36
2018-11-21T05:42:14.013Z,15.36
2018-11-21T05:43:17.659Z,15.35
2018-11-21T05:44:19.407Z,15.35
2018-11-21T05:45:21.169Z,15.36
2018-11-21T05:46:22.923Z,15.34
2018-11-21T05:47:24.675Z,15.34
2018-11-21T05:48:26.433Z,15.35
2018-11-21T05:49:28.195Z,15.35
2018-11-21T05:50:29.963Z,15.36
2018-11-21T05:51:32.767Z,15.35
2018-11-21T05:52:34.532Z,15.36
2018-11-21T05:53:36.277Z,15.34
2018-11-21T05:54:38.019Z,15.35
2018-11-21T05:55:39.787Z,15.35
2018-11-21T05:56:44.357Z,15.34
2018-11-21T05:57:46.120Z,15.34
2018-11-21T05:58:47.859Z,15.36
2018-11-21T05:59:49.589Z,15.35
2018-11-21T06:00:56.432Z,15.35
2018-11-21T06:01:58.185Z,15.52
2018-11-21T06:02:59.910Z,15.60
2018-11-21T06:04:01.663Z,15.64
2018-11-21T06:05:03.400Z,15.65
2018-11-21T06:06:09.904Z,15.67
2018-11-21T06:07:06.934Z,15.63
2018-11-21T06:08:10.638Z,15.63
2018-11-21T06:09:13.064Z,15.64
2018-11-21T06:10:15.132Z,15.62
2018-11-21T06:11:17.942Z,15.63
2018-11-21T06:12:19.978Z,15.63
2018-11-21T06:13:21.726Z,15.61
2018-11-21T06:14:23.478Z,15.87
2018-11-21T06:15:25.220Z,16.01
2018-11-21T06:16:28.166Z,15.96
2018-11-21T06:17:29.916Z,15.96
2018-11-21T06:18:31.651Z,15.90
2018-11-21T06:19:33.444Z,15.80
2018-11-21T06:20:35.183Z,15.75
2018-11-21T06:21:36.942Z,15.69
2018-11-21T06:22:40.541Z,15.67
2018-11-21T06:23:42.292Z,15.65
2018-11-21T06:24:44.034Z,15.64
2018-11-21T06:25:45.931Z,15.62
2018-11-21T06:26:47.677Z,15.58
2018-11-21T06:27:51.475Z,15.55
2018-11-21T06:28:53.250Z,15.51
2018-11-21T06:29:54.982Z,15.57
2018-11-21T06:30:56.766Z,15.61
2018-11-21T06:31:58.710Z,15.64
2018-11-21T06:33:00.452Z,15.65
2018-11-21T06:34:02.197Z,15.64
2018-11-21T06:35:04.803Z,15.64
2018-11-21T06:36:06.622Z,15.64
2018-11-21T06:37:08.374Z,15.65
2018-11-21T06:38:10.253Z,15.64
2018-11-21T06:39:12.000Z,15.64
2018-11-21T06:40:15.018Z,15.64
2018-11-21T06:41:17.566Z,15.64
2018-11-21T06:42:19.299Z,15.64
2018-11-21T06:43:21.067Z,15.66
2018-11-21T06:44:22.885Z,15.64
2018-11-21T06:45:27.369Z,15.65
2018-11-21T06:46:29.125Z,15.64
2018-11-21T06:47:30.874Z,15.66
2018-11-21T06:48:34.572Z,15.67
2018-11-21T06:49:36.325Z,15.65
2018-11-21T06:50:38.058Z,15.66
2018-11-21T06:51:39.828Z,15.65
2018-11-21T06:52:45.137Z,15.64
2018-11-21T06:53:46.972Z,15.64
2018-11-21T06:54:48.716Z,15.66
2018-11-21T06:55:50.476Z,15.67
2018-11-21T06:56:52.262Z,15.68
2018-11-21T06:57:54.014Z,15.68
2018-11-21T06:58:55.760Z,15.67
2018-11-21T06:59:57.529Z,15.68
2018-11-21T07:00:59.318Z,15.67
2018-11-21T07:02:01.088Z,15.69
2018-11-21T07:03:05.446Z,15.67
2018-11-21T07:04:07.239Z,15.67
2018-11-21T07:05:09.754Z,15.65
2018-11-21T07:06:11.795Z,15.68
2018-11-21T07:07:14.088Z,15.65
2018-11-21T07:08:15.821Z,15.65
2018-11-21T07:09:17.574Z,15.66
2018-11-21T07:10:19.335Z,15.67
2018-11-21T07:11:21.454Z,15.65
2018-11-21T07:12:23.587Z,15.66
2018-11-21T07:13:25.346Z,15.64
2018-11-21T07:14:27.088Z,15.66
2018-11-21T07:15:31.114Z,15.64
2018-11-21T07:16:34.817Z,15.65
2018-11-21T07:17:38.432Z,15.65
2018-11-21T07:18:40.653Z,15.64
2018-11-21T07:19:42.424Z,15.65
2018-11-21T07:20:44.169Z,15.64
2018-11-21T07:21:45.927Z,15.66
2018-11-21T07:22:47.734Z,15.68
2018-11-21T07:23:49.498Z,15.66
2018-11-21T07:24:52.457Z,15.68
2018-11-21T07:25:54.218Z,15.67
2018-11-21T07:26:55.969Z,15.67
2018-11-21T07:27:57.742Z,15.65
2018-11-21T07:29:09.817Z,15.67
2018-11-21T07:30:12.701Z,15.67
2018-11-21T07:31:14.456Z,15.66
2018-11-21T07:32:17.089Z,15.67
2018-11-21T07:33:18.857Z,15.67
2018-11-21T07:34:21.638Z,15.67
2018-11-21T07:35:22.723Z,15.66
2018-11-21T07:36:27.343Z,15.64
2018-11-21T07:37:30.308Z,15.64
2018-11-21T07:38:32.089Z,15.64
2018-11-21T07:39:38.351Z,15.64
2018-11-21T07:40:41.178Z,15.66
2018-11-21T07:41:42.944Z,15.65
2018-11-21T07:42:44.748Z,15.65
2018-11-21T07:43:46.563Z,15.65
2018-11-21T07:44:48.522Z,15.64
2018-11-21T07:45:50.287Z,15.65
2018-11-21T07:46:52.039Z,15.66
2018-11-21T07:47:53.780Z,15.66
2018-11-21T07:48:57.386Z,15.64
2018-11-21T07:49:59.147Z,15.63
2018-11-21T07:51:02.460Z,15.65
2018-11-21T07:52:02.681Z,15.64
2018-11-21T07:53:04.431Z,15.64
2018-11-21T07:54:06.399Z,15.66
2018-11-21T07:55:08.669Z,15.64
2018-11-21T07:56:10.409Z,15.64
2018-11-21T07:57:12.147Z,15.63
2018-11-21T07:58:15.953Z,15.63
2018-11-21T07:59:18.083Z,15.64
2018-11-21T08:00:19.858Z,15.62
2018-11-21T08:01:27.638Z,15.63
2018-11-21T08:02:34.432Z,15.64
2018-11-21T08:03:47.357Z,15.63
2018-11-21T08:05:02.394Z,15.65
2018-11-21T08:06:09.653Z,15.64
2018-11-21T08:07:30.730Z,15.65
2018-11-21T08:08:38.025Z,15.62
2018-11-21T08:10:00.409Z,15.62
2018-11-21T08:11:30.744Z,15.61
2018-11-21T08:12:54.398Z,15.60
2018-11-21T08:14:28.433Z,15.61
2018-11-21T08:15:49.395Z,15.60
2018-11-21T08:17:09.049Z,15.61
2018-11-21T08:18:32.975Z,15.60
2018-11-21T08:20:09.175Z,15.59
2018-11-21T08:21:36.238Z,15.59
2018-11-21T08:22:54.110Z,15.63
2018-11-21T08:24:13.221Z,15.60
2018-11-21T08:25:32.921Z,15.62
2018-11-21T08:26:57.763Z,15.60
2018-11-21T08:28:37.009Z,15.59
2018-11-21T08:30:40.524Z,15.58
2018-11-21T08:31:42.276Z,15.59
2018-11-21T08:32:44.434Z,15.58
2018-11-21T08:33:45.798Z,15.59
2018-11-21T08:34:47.563Z,15.59
2018-11-21T08:35:50.905Z,15.58
2018-11-21T08:36:52.669Z,15.59
2018-11-21T08:37:56.271Z,15.59
2018-11-21T08:39:00.962Z,15.57
2018-11-21T08:40:02.725Z,15.57
2018-11-21T08:41:07.755Z,15.58
2018-11-21T08:42:09.510Z,15.57
2018-11-21T08:43:14.507Z,15.59
2018-11-21T08:44:16.263Z,15.58
2018-11-21T08:45:18.063Z,15.59
2018-11-21T08:46:19.855Z,15.59
2018-11-21T08:47:21.601Z,15.58
2018-11-21T08:48:23.650Z,15.58
2018-11-21T08:49:26.202Z,15.57
2018-11-21T08:50:27.949Z,15.56
2018-11-21T08:51:29.742Z,15.58
2018-11-21T08:52:31.634Z,15.58
2018-11-21T08:53:33.756Z,15.59
2018-11-21T08:54:35.508Z,15.59
2018-11-21T08:55:37.630Z,15.60
2018-11-21T08:56:40.926Z,15.60
2018-11-21T08:57:42.676Z,15.60
2018-11-21T08:58:45.941Z,15.60
2018-11-21T08:59:47.705Z,15.60
2018-11-21T09:00:50.055Z,15.60
2018-11-21T09:01:51.829Z,15.59
2018-11-21T09:02:53.765Z,15.60
2018-11-21T09:03:55.526Z,15.59
2018-11-21T09:04:57.345Z,15.59
2018-11-21T09:06:02.413Z,15.58
2018-11-21T09:07:00.908Z,15.58
2018-11-21T09:08:02.662Z,15.61
2018-11-21T09:09:05.464Z,15.60
2018-11-21T09:10:07.226Z,15.59
2018-11-21T09:11:08.984Z,15.59
2018-11-21T09:12:11.170Z,15.59
2018-11-21T09:13:23.091Z,15.59
2018-11-21T09:14:24.839Z,15.58
2018-11-21T09:15:26.593Z,15.58
2018-11-21T09:16:31.775Z,15.58
2018-11-21T09:17:33.577Z,15.57
2018-11-21T09:18:35.324Z,15.58
2018-11-21T09:19:39.585Z,15.57
2018-11-21T09:20:41.334Z,15.57
2018-11-21T09:21:43.094Z,15.57
2018-11-21T09:22:46.361Z,15.57
2018-11-21T09:23:48.116Z,15.56
2018-11-21T09:24:49.893Z,15.56
2018-11-21T09:25:51.714Z,15.56
2018-11-21T09:26:53.442Z,15.56
2018-11-21T09:27:55.220Z,15.56
2018-11-21T09:28:59.795Z,15.55
2018-11-21T09:30:01.731Z,15.57
2018-11-21T09:31:03.501Z,15.56
2018-11-21T09:32:05.238Z,15.55
2018-11-21T09:33:06.998Z,15.53
2018-11-21T09:34:08.760Z,15.55
2018-11-21T09:35:25.257Z,15.55
2018-11-21T09:36:26.974Z,15.55
2018-11-21T09:37:30.117Z,15.55
2018-11-21T09:38:32.570Z,15.55
2018-11-21T09:39:34.323Z,15.56
2018-11-21T09:40:36.065Z,15.55
2018-11-21T09:41:37.927Z,15.56
2018-11-21T09:42:42.602Z,15.56
2018-11-21T09:43:44.378Z,15.55
2018-11-21T09:44:46.127Z,15.56
2018-11-21T09:45:49.050Z,15.56
2018-11-21T09:46:50.829Z,15.54
2018-11-21T09:47:52.583Z,15.54
2018-11-21T09:49:00.570Z,15.53
2018-11-21T09:50:02.350Z,15.53
2018-11-21T09:51:04.097Z,15.54
2018-11-21T09:52:05.874Z,15.54
2018-11-21T09:53:07.596Z,15.56
2018-11-21T09:54:09.377Z,15.54
2018-11-21T09:55:12.260Z,15.53
2018-11-21T09:56:14.016Z,15.54
2018-11-21T09:57:15.864Z,15.54
2018-11-21T09:58:17.620Z,15.53
2018-11-21T09:59:24.275Z,15.52
2018-11-21T10:00:26.184Z,15.52
2018-11-21T10:01:27.932Z,15.53
2018-11-21T10:02:29.686Z,15.53
2018-11-21T10:03:32.956Z,15.52
2018-11-21T10:04:35.849Z,15.52
2018-11-21T10:05:37.600Z,15.53
2018-11-21T10:06:39.369Z,15.53
2018-11-21T10:07:41.132Z,15.52
2018-11-21T10:08:44.615Z,15.52
2018-11-21T10:09:48.533Z,15.52
2018-11-21T10:10:52.356Z,15.52
2018-11-21T10:11:54.115Z,15.51
2018-11-21T10:13:08.443Z,15.51
2018-11-21T10:14:10.190Z,15.51
2018-11-21T10:15:14.816Z,15.51
2018-11-21T10:16:16.575Z,15.49
2018-11-21T10:17:20.719Z,15.50
2018-11-21T10:18:25.255Z,15.50
2018-11-21T10:19:27.036Z,15.50
2018-11-21T10:20:28.787Z,15.50
2018-11-21T10:21:32.379Z,15.50
2018-11-21T10:22:34.131Z,15.49
2018-11-21T10:23:38.016Z,15.49
2018-11-21T10:24:39.803Z,15.50
2018-11-21T10:25:41.548Z,15.51
2018-11-21T10:26:44.159Z,15.51
2018-11-21T10:27:45.948Z,15.51
2018-11-21T10:28:48.408Z,15.50
2018-11-21T10:29:50.144Z,15.50
2018-11-21T10:30:52.016Z,15.50
2018-11-21T10:31:53.780Z,15.50
2018-11-21T10:32:55.810Z,15.49
2018-11-21T10:33:59.047Z,15.49
2018-11-21T10:35:00.837Z,15.50
2018-11-21T10:36:03.730Z,15.49
2018-11-21T10:37:05.480Z,15.50
2018-11-21T10:38:07.229Z,15.51
2018-11-21T10:39:09.152Z,15.50
2018-11-21T10:40:11.056Z,15.51
2018-11-21T10:41:12.766Z,15.49
2018-11-21T10:42:14.510Z,15.49
2018-11-21T10:43:17.091Z,15.50
2018-11-21T10:44:18.824Z,15.50
2018-11-21T10:45:20.591Z,15.49
2018-11-21T10:46:22.333Z,15.49
2018-11-21T10:47:24.104Z,15.49
2018-11-21T10:48:25.903Z,15.49
2018-11-21T10:49:27.643Z,15.50
2018-11-21T10:50:29.596Z,15.50
2018-11-21T10:51:32.105Z,15.49
2018-11-21T10:52:33.848Z,15.48
2018-11-21T10:53:35.607Z,15.49
2018-11-21T10:54:37.361Z,15.49
2018-11-21T10:55:39.141Z,15.50
2018-11-21T10:56:40.915Z,15.48
2018-11-21T10:57:42.678Z,15.49
2018-11-21T10:58:44.442Z,15.47
2018-11-21T10:59:46.326Z,15.47
2018-11-21T11:01:06.241Z,15.47
2018-11-21T11:02:24.369Z,15.46
2018-11-21T11:03:28.270Z,15.47
2018-11-21T11:04:43.102Z,15.47
2018-11-21T11:06:04.070Z,15.48
2018-11-21T11:07:29.328Z,15.48
2018-11-21T11:08:56.308Z,15.48
2018-11-21T11:10:20.197Z,15.47
2018-11-21T11:11:42.391Z,15.48
2018-11-21T11:12:57.872Z,15.46
2018-11-21T11:14:37.057Z,15.46
2018-11-21T11:16:00.867Z,15.47
2018-11-21T11:17:20.603Z,15.47
2018-11-21T11:18:40.423Z,15.47
2018-11-21T11:20:08.712Z,15.46
2018-11-21T11:21:26.583Z,15.45
2018-11-21T11:22:50.295Z,15.46
2018-11-21T11:24:16.838Z,15.47
2018-11-21T11:25:58.858Z,15.47
2018-11-21T11:27:13.827Z,15.46
2018-11-21T11:28:40.413Z,15.47
2018-11-21T11:29:54.747Z,15.47
2018-11-21T11:31:26.081Z,15.46
2018-11-21T11:32:56.075Z,15.46
2018-11-21T11:34:15.594Z,15.47
2018-11-21T11:35:35.314Z,15.46
2018-11-21T11:37:08.448Z,15.44
2018-11-21T11:40:09.330Z,15.45
2018-11-21T11:41:39.094Z,15.46
2018-11-21T11:42:58.437Z,15.45
2018-11-21T11:44:19.131Z,15.46
2018-11-21T11:45:49.211Z,15.45
2018-11-21T11:47:13.187Z,15.45
2018-11-21T11:48:39.770Z,15.45
2018-11-21T11:50:16.584Z,15.44
2018-11-21T11:51:49.461Z,15.45
2018-11-21T11:53:10.411Z,15.45
2018-11-21T11:54:37.339Z,15.46
2018-11-21T11:56:02.292Z,15.45
2018-11-21T11:57:32.325Z,15.45
2018-11-21T11:58:47.823Z,15.45
2018-11-21T12:00:16.479Z,15.43
2018-11-21T12:01:40.481Z,15.44
2018-11-21T12:03:00.479Z,15.45
2018-11-21T12:04:21.471Z,15.44
2018-11-21T12:05:47.921Z,15.44
2018-11-21T12:07:15.696Z,15.45
2018-11-21T12:08:39.495Z,15.44
2018-11-21T12:10:03.220Z,15.44
2018-11-21T12:11:23.277Z,15.44
2018-11-21T12:12:43.467Z,15.44
2018-11-21T12:14:03.390Z,15.44
2018-11-21T12:15:33.732Z,15.43
2018-11-21T12:16:53.877Z,15.44
2018-11-21T12:18:13.561Z,15.45
2018-11-21T12:19:33.275Z,15.43
2018-11-21T12:20:53.482Z,15.44
2018-11-21T12:22:20.536Z,15.44
2018-11-21T12:23:42.584Z,15.43
2018-11-21T12:25:02.425Z,15.44
2018-11-21T12:26:22.472Z,15.45
2018-11-21T12:27:46.451Z,15.45
2018-11-21T12:29:22.537Z,15.45
2018-11-21T12:30:42.397Z,15.43
2018-11-21T12:32:09.634Z,15.45
2018-11-21T12:33:29.227Z,15.44
2018-11-21T12:34:48.835Z,15.44
2018-11-21T12:36:15.909Z,15.45
2018-11-21T12:37:43.393Z,15.44
2018-11-21T12:39:14.444Z,15.44
2018-11-21T12:40:34.050Z,15.43
2018-11-21T12:41:59.942Z,15.43
2018-11-21T12:43:19.809Z,15.44
2018-11-21T12:44:42.572Z,15.44
2018-11-21T12:46:06.165Z,15.44
2018-11-21T12:47:26.040Z,15.44
2018-11-21T12:49:06.380Z,15.43
2018-11-21T12:50:32.572Z,15.42
2018-11-21T12:51:54.067Z,15.44
2018-11-21T12:53:17.651Z,15.45
2018-11-21T12:54:41.567Z,15.45
2018-11-21T12:56:09.396Z,15.44
2018-11-21T12:57:45.678Z,15.43
2018-11-21T12:59:05.594Z,15.43
2018-11-21T13:00:29.280Z,15.43
2018-11-21T13:01:50.237Z,15.43
2018-11-21T13:03:12.575Z,15.43
2018-11-21T13:04:33.279Z,15.44
2018-11-21T13:06:06.198Z,15.43
2018-11-21T13:07:45.309Z,15.43
2018-11-21T13:09:06.249Z,15.43
2018-11-21T13:10:25.875Z,15.42
2018-11-21T13:11:37.611Z,15.41
2018-11-21T13:13:04.200Z,15.41
2018-11-21T13:14:37.509Z,15.43
2018-11-21T13:15:55.356Z,15.42
2018-11-21T13:17:15.348Z,15.43
2018-11-21T13:18:42.620Z,15.42
2018-11-21T13:19:53.548Z,15.43
2018-11-21T13:21:02.478Z,15.43
2018-11-21T13:22:41.766Z,15.42
2018-11-21T13:24:05.439Z,15.41
2018-11-21T13:25:41.423Z,15.42
2018-11-21T13:27:02.510Z,15.41
2018-11-21T13:28:28.844Z,15.42
2018-11-21T13:30:06.050Z,15.42
2018-11-21T13:31:42.154Z,15.40
2018-11-21T13:33:02.702Z,15.41
2018-11-21T13:34:22.291Z,15.41
2018-11-21T13:35:41.921Z,15.41
2018-11-21T13:37:05.946Z,15.41
2018-11-21T13:38:25.687Z,15.40
2018-11-21T13:39:45.702Z,15.40
2018-11-21T13:41:05.338Z,15.39
2018-11-21T13:42:15.292Z,15.40
2018-11-21T13:43:39.190Z,15.40
2018-11-21T13:45:08.778Z,15.40
2018-11-21T13:46:29.070Z,15.39
2018-11-21T13:47:55.265Z,15.40
2018-11-21T13:49:14.712Z,15.39
2018-11-21T13:50:34.363Z,15.39
2018-11-21T13:51:55.225Z,15.39
2018-11-21T13:53:23.119Z,15.39
2018-11-21T13:54:46.740Z,15.39
2018-11-21T13:55:48.511Z,15.39
2018-11-21T13:56:50.652Z,15.39
2018-11-21T13:57:52.360Z,15.40
2018-11-21T13:58:54.172Z,15.38
2018-11-21T13:59:56.361Z,15.38
2018-11-21T14:00:59.853Z,15.38
2018-11-21T14:02:01.638Z,15.39
2018-11-21T14:03:03.371Z,15.39
2018-11-21T14:04:05.120Z,15.39
2018-11-21T14:05:06.911Z,15.38
2018-11-21T14:06:09.626Z,15.38
2018-11-21T14:07:11.401Z,15.37
2018-11-21T14:08:13.158Z,15.37
2018-11-21T14:09:19.980Z,15.38
2018-11-21T14:10:21.773Z,15.36
2018-11-21T14:11:23.535Z,15.37
2018-11-21T14:12:25.272Z,15.37
2018-11-21T14:13:27.029Z,15.37
2018-11-21T14:14:28.778Z,15.37
2018-11-21T14:15:30.622Z,15.37
2018-11-21T14:16:32.350Z,15.37